Time;durP1;ratioP1;P1;durP2;ratioP2;P2;SDS_P1;SDS_P2;PMS_P1;PMS_P2;Temp;Humidity;BMP_temperature;BMP_pressure;BME280_temperature;BME280_humidity;BME280_pressure;Samples;Min_cycle;Max_cycle;Signal;HPM_P1;HPM_P2
2023/11/30 00:00:24;;;;;;;;;;;;;;;;;;2215249;66;1945;-77
2023/11/30 00:03:05;;;;;;;;;;;;;;;;;;2216056;59;2457;-77
2023/11/30 00:05:41;;;;;;;;;;;;;;;;;;2215361;66;1002;-77
2023/11/30 00:08:12;;;;;;;;;;;;;;;;;;2216326;66;1179;-77
2023/11/30 00:10:43;;;;;;;;;;;;;;;;;;2214906;66;1135;-77
2023/11/30 00:13:18;;;;;;;;;;;;;;;;;;2199629;67;1602;-77
2023/11/30 00:15:49;;;;;;;;;;;;;;;;;;2214868;59;1151;-77
2023/11/30 00:18:28;;;;;;;;;;;;;;;;;;2215098;59;1128;-77
2023/11/30 00:20:58;;;;;;;;;;;;;;;;;;2219338;66;1918;-77
2023/11/30 00:23:35;;;;;;;;;;;;;;;;;;2218906;66;1413;-77
2023/11/30 00:26:08;;;;;;;;;;;;;;;;;;2206964;59;1085;-77
2023/11/30 00:28:39;;;;;;;;;;;;;;;;;;2200384;59;1411;-77
2023/11/30 00:31:09;;;;;;;;;;;;;;;;;;2215394;66;2407;-77
2023/11/30 00:33:40;;;;;;;;;;;;;;;;;;2215648;59;1072;-77
2023/11/30 00:36:10;;;;;;;;;;;;;;;;;;2199930;67;1145;-78
2023/11/30 00:38:43;;;;;;;;;;;;;;;;;;2214444;59;1282;-77
2023/11/30 00:41:16;;;;;;;;;;;;;;;;;;2219102;59;1997;-77
2023/11/30 00:43:47;;;;;;;;;;;;;;;;;;2220668;66;1003;-78
2023/11/30 00:46:20;;;;;;;;;;;;;;;;;;2216919;66;1054;-77
2023/11/30 00:48:50;;;;;;;;;;;;;;;;;;2215965;59;1141;-76
2023/11/30 00:51:20;;;;;;;;;;;;;;;;;;2216870;59;1321;-77
2023/11/30 00:53:53;;;;;;;;;;;;;;;;;;2216890;66;1191;-77
2023/11/30 00:56:26;;;;;;;;;;;;;;;;;;2215901;59;1044;-77
2023/11/30 00:59:02;;;;;;;;;;;;;;;;;;2216538;66;1218;-77
2023/11/30 01:01:36;;;;;;;;;;;;;;;;;;2214953;59;1933;-77
2023/11/30 01:04:06;;;;;;;;;;;;;;;;;;2199823;59;2409;-77
2023/11/30 01:06:36;;;;;;;;;;;;;;;;;;2216016;59;1250;-76
2023/11/30 01:09:10;;;;;;;;;;;;;;;;;;2216639;66;1249;-77
2023/11/30 01:11:43;;;;;;;;;;;;;;;;;;2206392;66;1706;-77
2023/11/30 01:14:14;;;;;;;;;;;;;;;;;;2200684;59;1608;-77
2023/11/30 01:16:57;;;;;;;;;;;;;;;;;;2217643;59;1168;-77
2023/11/30 01:19:32;;;;;;;;;;;;;;;;;;2214944;59;1999;-77
2023/11/30 01:22:13;;;;;;;;;;;;;;;;;;2215692;66;1018;-77
2023/11/30 01:24:52;;;;;;;;;;;;;;;;;;2214731;66;1116;-77
2023/11/30 01:27:23;;;;;;;;;;;;;;;;;;2215500;59;1482;-77
2023/11/30 01:29:54;;;;;;;;;;;;;;;;;;2200908;59;2367;-79
2023/11/30 01:32:27;;;;;;;;;;;;;;;;;;2215517;66;1001;-77
2023/11/30 01:35:03;;;;;;;;;;;;;;;;;;2217408;59;1103;-77
2023/11/30 01:37:40;;;;;;;;;;;;;;;;;;2214926;59;1094;-77
2023/11/30 01:40:13;;;;;;;;;;;;;;;;;;2215868;59;1939;-77
2023/11/30 01:42:44;;;;;;;;;;;;;;;;;;2215267;59;1085;-77
2023/11/30 01:45:14;;;;;;;;;;;;;;;;;;2216382;59;1634;-77
2023/11/30 01:47:47;;;;;;;;;;;;;;;;;;2216090;66;1140;-77
2023/11/30 01:50:24;;;;;;;;;;;;;;;;;;2216034;66;1066;-77
2023/11/30 01:52:57;;;;;;;;;;;;;;;;;;2215248;66;1180;-77
2023/11/30 01:55:30;;;;;;;;;;;;;;;;;;2218295;59;1154;-77
2023/11/30 01:58:04;;;;;;;;;;;;;;;;;;2209545;59;1234;-77
2023/11/30 02:00:36;;;;;;;;;;;;;;;;;;2214719;66;1970;-77
2023/11/30 02:03:09;;;;;;;;;;;;;;;;;;2215847;59;2285;-77
2023/11/30 02:05:40;;;;;;;;;;;;;;;;;;2214910;66;1279;-77
2023/11/30 02:08:13;;;;;;;;;;;;;;;;;;2212396;59;1393;-77
2023/11/30 02:10:44;;;;;;;;;;;;;;;;;;2212378;66;1292;-76
2023/11/30 02:13:17;;;;;;;;;;;;;;;;;;2214470;66;1097;-77
2023/11/30 02:15:47;;;;;;;;;;;;;;;;;;2215305;66;1229;-77
2023/11/30 02:18:21;;;;;;;;;;;;;;;;;;2216124;66;1230;-77
2023/11/30 02:20:54;;;;;;;;;;;;;;;;;;2212921;66;1902;-77
2023/11/30 02:23:33;;;;;;;;;;;;;;;;;;2215320;59;1145;-77
2023/11/30 02:26:06;;;;;;;;;;;;;;;;;;2212674;59;1214;-77
2023/11/30 02:28:40;;;;;;;;;;;;;;;;;;2215338;59;2019;-77
2023/11/30 02:31:13;;;;;;;;;;;;;;;;;;2215686;66;1062;-77
2023/11/30 02:33:44;;;;;;;;;;;;;;;;;;2214041;59;1641;-77
2023/11/30 02:36:19;;;;;;;;;;;;;;;;;;2214862;66;1114;-77
2023/11/30 02:38:55;;;;;;;;;;;;;;;;;;2214653;59;1596;-77
2023/11/30 02:41:29;;;;;;;;;;;;;;;;;;2217133;66;1936;-77
2023/11/30 02:44:02;;;;;;;;;;;;;;;;;;2215161;66;1538;-77
2023/11/30 02:46:41;;;;;;;;;;;;;;;;;;2216492;66;994;-77
2023/11/30 02:49:20;;;;;;;;;;;;;;;;;;2212593;66;1281;-77
2023/11/30 02:51:53;;;;;;;;;;;;;;;;;;2215818;66;1193;-77
2023/11/30 02:54:23;;;;;;;;;;;;;;;;;;2211270;67;1059;-77
2023/11/30 02:56:56;;;;;;;;;;;;;;;;;;2214479;59;1087;-77
2023/11/30 02:59:26;;;;;;;;;;;;;;;;;;2214598;59;1340;-77
2023/11/30 03:02:02;;;;;;;;;;;;;;;;;;2210125;59;2272;-77
2023/11/30 03:04:36;;;;;;;;;;;;;;;;;;2215978;59;979;-76
2023/11/30 03:07:06;;;;;;;;;;;;;;;;;;2215896;59;1327;-77
2023/11/30 03:09:40;;;;;;;;;;;;;;;;;;2203983;59;1175;-77
2023/11/30 03:12:20;;;;;;;;;;;;;;;;;;2216074;66;1117;-76
2023/11/30 03:15:20;;;;;;;;;;;;;;;;;;2216957;59;1146;-77
2023/11/30 03:18:02;;;;;;;;;;;;;;;;;;2215265;59;1393;-75
2023/11/30 03:20:38;;;;;;;;;;;;;;;;;;2215984;59;1918;-77
2023/11/30 03:23:09;;;;;;;;;;;;;;;;;;2204927;66;1317;-77
2023/11/30 03:25:58;;;;;;;;;;;;;;;;;;2215469;59;1021;-77
2023/11/30 03:28:34;;;;;;;;;;;;;;;;;;2215330;66;1150;-77
2023/11/30 03:31:16;;;;;;;;;;;;;;;;;;2215422;59;1174;-77
2023/11/30 03:33:46;;;;;;;;;;;;;;;;;;2213820;60;1285;-77
2023/11/30 03:36:17;;;;;;;;;;;;;;;;;;2214392;59;1135;-77
2023/11/30 03:38:57;;;;;;;;;;;;;;;;;;2214391;59;1372;-75
2023/11/30 03:41:35;;;;;;;;;;;;;;;;;;2212751;59;1941;-80
2023/11/30 03:44:08;;;;;;;;;;;;;;;;;;2214252;59;1592;-77
2023/11/30 03:46:45;;;;;;;;;;;;;;;;;;2211815;66;1746;-77
2023/11/30 03:49:15;;;;;;;;;;;;;;;;;;2216654;59;2307;-76
2023/11/30 03:51:49;;;;;;;;;;;;;;;;;;2211444;59;1314;-77
2023/11/30 03:54:22;;;;;;;;;;;;;;;;;;2214550;59;1356;-75
2023/11/30 03:57:05;;;;;;;;;;;;;;;;;;2213973;59;1165;-77
2023/11/30 03:59:46;;;;;;;;;;;;;;;;;;2215811;59;1997;-77
2023/11/30 04:02:31;;;;;;;;;;;;;;;;;;2210185;66;1735;-77
2023/11/30 04:05:28;;;;;;;;;;;;;;;;;;2211709;67;1197;-77
2023/11/30 04:08:00;;;;;;;;;;;;;;;;;;2215477;59;1221;-75
2023/11/30 04:10:36;;;;;;;;;;;;;;;;;;2215597;66;1366;-76
2023/11/30 04:13:06;;;;;;;;;;;;;;;;;;2200203;67;1182;-77
2023/11/30 04:15:39;;;;;;;;;;;;;;;;;;2215395;66;1244;-78
2023/11/30 04:18:12;;;;;;;;;;;;;;;;;;2216137;66;1280;-78
2023/11/30 04:20:43;;;;;;;;;;;;;;;;;;2216230;59;1932;-77
2023/11/30 04:23:16;;;;;;;;;;;;;;;;;;2215807;66;1192;-76
2023/11/30 04:25:47;;;;;;;;;;;;;;;;;;2215348;66;1091;-77
2023/11/30 04:28:21;;;;;;;;;;;;;;;;;;2205420;59;2136;-79
2023/11/30 04:30:52;;;;;;;;;;;;;;;;;;2200435;59;2420;-75
2023/11/30 04:33:26;;;;;;;;;;;;;;;;;;2216181;66;1104;-77
2023/11/30 04:35:56;;;;;;;;;;;;;;;;;;2214221;66;1397;-77
2023/11/30 04:38:26;;;;;;;;;;;;;;;;;;2214833;59;1259;-81
2023/11/30 04:41:05;;;;;;;;;;;;;;;;;;2205350;59;1904;-77
2023/11/30 04:43:37;;;;;;;;;;;;;;;;;;2215324;59;1476;-77
2023/11/30 04:46:09;;;;;;;;;;;;;;;;;;2200803;59;1212;-75
2023/11/30 04:48:43;;;;;;;;;;;;;;;;;;2214528;59;1191;-75
2023/11/30 04:51:13;;;;;;;;;;;;;;;;;;2200389;67;1236;-77
2023/11/30 04:53:44;;;;;;;;;;;;;;;;;;2215207;59;1303;-77
2023/11/30 04:56:20;;;;;;;;;;;;;;;;;;2215457;59;1202;-77
2023/11/30 04:58:56;;;;;;;;;;;;;;;;;;2205134;66;1211;-77
2023/11/30 05:01:33;;;;;;;;;;;;;;;;;;2212555;66;1988;-77
2023/11/30 05:04:06;;;;;;;;;;;;;;;;;;2214490;59;2450;-77
2023/11/30 05:06:36;;;;;;;;;;;;;;;;;;2199239;59;1345;-75
2023/11/30 05:09:09;;;;;;;;;;;;;;;;;;2214078;59;1932;-75
2023/11/30 05:11:42;;;;;;;;;;;;;;;;;;2214753;59;1178;-77
2023/11/30 05:14:20;;;;;;;;;;;;;;;;;;2214996;59;1276;-76
2023/11/30 05:17:00;;;;;;;;;;;;;;;;;;2214987;60;1265;-77
2023/11/30 05:20:04;;;;;;;;;;;;;;;;;;2199033;59;1101;-76
2023/11/30 05:22:43;;;;;;;;;;;;;;;;;;2214802;59;1377;-77
2023/11/30 05:25:23;;;;;;;;;;;;;;;;;;2215195;59;1293;-77
2023/11/30 05:28:01;;;;;;;;;;;;;;;;;;2214703;59;2015;-76
2023/11/30 05:30:37;;;;;;;;;;;;;;;;;;2213661;59;2466;-77
2023/11/30 05:33:18;;;;;;;;;;;;;;;;;;2214652;67;1142;-77
2023/11/30 05:35:51;;;;;;;;;;;;;;;;;;2214664;66;1509;-77
2023/11/30 05:38:25;;;;;;;;;;;;;;;;;;2214385;59;1500;-75
2023/11/30 05:40:58;;;;;;;;;;;;;;;;;;2211730;66;1993;-79
2023/11/30 05:43:49;;;;;;;;;;;;;;;;;;2214561;59;1474;-78
2023/11/30 05:46:28;;;;;;;;;;;;;;;;;;2214174;66;1076;-77
2023/11/30 05:49:02;;;;;;;;;;;;;;;;;;2215830;59;1198;-77
2023/11/30 05:51:35;;;;;;;;;;;;;;;;;;2212651;67;1573;-75
2023/11/30 05:54:11;;;;;;;;;;;;;;;;;;2215489;59;1170;-76
2023/11/30 05:56:52;;;;;;;;;;;;;;;;;;2214177;59;1011;-77
2023/11/30 05:59:37;;;;;;;;;;;;;;;;;;2214874;59;1347;-77
2023/11/30 06:02:36;;;;;;;;;;;;;;;;;;2211833;59;2281;-77
2023/11/30 06:05:10;;;;;;;;;;;;;;;;;;2211678;66;954;-76
2023/11/30 06:07:44;;;;;;;;;;;;;;;;;;2215553;66;1305;-77
2023/11/30 06:10:17;;;;;;;;;;;;;;;;;;2215045;66;1150;-77
2023/11/30 06:12:47;;;;;;;;;;;;;;;;;;2213379;59;1059;-77
2023/11/30 06:15:18;;;;;;;;;;;;;;;;;;2216101;59;1156;-75
2023/11/30 06:17:51;;;;;;;;;;;;;;;;;;2215144;59;1470;-76
2023/11/30 06:20:29;;;;;;;;;;;;;;;;;;2214388;66;1940;-75
2023/11/30 06:22:59;;;;;;;;;;;;;;;;;;2213219;66;1182;-78
2023/11/30 06:25:33;;;;;;;;;;;;;;;;;;2214578;66;1085;-74
2023/11/30 06:28:03;;;;;;;;;;;;;;;;;;2214949;59;1996;-77
2023/11/30 06:30:34;;;;;;;;;;;;;;;;;;2213576;59;2280;-75
2023/11/30 06:33:04;;;;;;;;;;;;;;;;;;2213330;59;1370;-75
2023/11/30 06:35:38;;;;;;;;;;;;;;;;;;2214091;66;1045;-77
2023/11/30 06:38:10;;;;;;;;;;;;;;;;;;2203369;66;1317;-77
2023/11/30 06:41:04;;;;;;;;;;;;;;;;;;2213247;59;1941;-77
2023/11/30 06:43:34;;;;;;;;;;;;;;;;;;2212900;66;1342;-76
2023/11/30 06:46:07;;;;;;;;;;;;;;;;;;2213686;66;1273;-76
2023/11/30 06:48:37;;;;;;;;;;;;;;;;;;2213454;59;1366;-76
2023/11/30 06:51:08;;;;;;;;;;;;;;;;;;2213606;66;1133;-77
2023/11/30 06:53:41;;;;;;;;;;;;;;;;;;2213518;59;2407;-75
2023/11/30 06:56:12;;;;;;;;;;;;;;;;;;2213788;59;1187;-76
2023/11/30 06:58:44;;;;;;;;;;;;;;;;;;2213822;59;1116;-76
2023/11/30 07:01:32;;;;;;;;;;;;;;;;;;;;;
2023/11/30 07:04:05;;;;;;;;;;;;;;;;;;2213726;59;2257;-75
2023/11/30 07:06:40;;;;;;;;;;;;;;;;;;2214096;59;1245;-77
2023/11/30 07:09:16;;;;;;;;;;;;;;;;;;2214198;66;1211;-77
2023/11/30 07:11:49;;;;;;;;;;;;;;;;;;2213165;59;1311;-77
2023/11/30 07:14:34;;;;;;;;;;;;;;;;;;2215691;59;1116;-77
2023/11/30 07:17:10;;;;;;;;;;;;;;;;;;2213126;59;1306;-77
2023/11/30 07:19:43;;;;;;;;;;;;;;;;;;2213549;66;1977;-77
2023/11/30 07:22:17;;;;;;;;;;;;;;;;;;2214414;59;1118;-77
2023/11/30 07:25:14;;;;;;;;;;;;;;;;;;2199104;67;1045;-77
2023/11/30 07:28:08;;;;;;;;;;;;;;;;;;2211925;59;1476;-77
2023/11/30 07:30:42;;;;;;;;;;;;;;;;;;2213691;59;2321;-77
2023/11/30 07:33:17;;;;;;;;;;;;;;;;;;2213401;59;1603;-77
2023/11/30 07:36:00;;;;;;;;;;;;;;;;;;2213286;59;1200;-77
2023/11/30 07:38:30;;;;;;;;;;;;;;;;;;2214525;59;1296;-76
2023/11/30 07:41:04;;;;;;;;;;;;;;;;;;2211912;59;2165;-78
2023/11/30 07:43:35;;;;;;;;;;;;;;;;;;2215058;59;1395;-78
2023/11/30 07:46:22;;;;;;;;;;;;;;;;;;2215110;59;1272;-78
2023/11/30 07:48:53;;;;;;;;;;;;;;;;;;2214124;66;1281;-78
2023/11/30 07:51:25;;;;;;;;;;;;;;;;;;2213379;59;1197;-78
2023/11/30 07:53:56;;;;;;;;;;;;;;;;;;2211767;67;1022;-78
2023/11/30 07:56:45;;;;;;;;;;;;;;;;;;2209036;59;1530;-78
2023/11/30 07:59:19;;;;;;;;;;;;;;;;;;2212974;59;1383;-77
2023/11/30 08:02:10;;;;;;;;;;;;;;;;;;;;;
2023/11/30 08:04:48;;;;;;;;;;;;;;;;;;2213427;66;1077;-77
2023/11/30 08:07:24;;;;;;;;;;;;;;;;;;2213156;66;1203;-76
2023/11/30 08:10:06;;;;;;;;;;;;;;;;;;2212676;59;989;-77
2023/11/30 08:13:03;;;;;;;;;;;;;;;;;;2204862;67;1022;-78
2023/11/30 08:15:56;;;;;;;;;;;;;;;;;;2212953;59;1220;-78
2023/11/30 08:18:27;;;;;;;;;;;;;;;;;;2194911;67;1287;-78
2023/11/30 08:21:07;;;;;;;;;;;;;;;;;;2212380;66;1938;-77
2023/11/30 08:24:23;;;;;;;;;;;;;;;;;;2212478;66;1138;-76
2023/11/30 08:26:41;;;;;;;;;;;;;;;;;;2211019;66;1260;-77
2023/11/30 08:29:21;;;;;;;;;;;;;;;;;;2212598;59;2199;-77
2023/11/30 08:32:00;;;;;;;;;;;;;;;;;;2212906;59;1352;-78
2023/11/30 08:34:36;;;;;;;;;;;;;;;;;;2213463;66;1314;-77
2023/11/30 08:37:25;;;;;;;;;;;;;;;;;;2212387;66;1230;-78
2023/11/30 08:39:55;;;;;;;;;;;;;;;;;;2211269;59;1933;-78
2023/11/30 08:42:45;;;;;;;;;;;;;;;;;;2212505;66;1276;-79
2023/11/30 08:45:27;;;;;;;;;;;;;;;;;;2212182;66;1634;-78
2023/11/30 08:48:03;;;;;;;;;;;;;;;;;;2211708;59;2234;-78
2023/11/30 08:50:33;;;;;;;;;;;;;;;;;;2212123;66;1652;-78
2023/11/30 08:53:04;;;;;;;;;;;;;;;;;;2212050;59;1230;-79
2023/11/30 08:55:37;;;;;;;;;;;;;;;;;;2213344;66;1351;-77
2023/11/30 08:58:16;;;;;;;;;;;;;;;;;;2212221;59;1145;-77
2023/11/30 09:00:59;;;;;;;;;;;;;;;;;;2212862;66;1914;-77
2023/11/30 09:03:51;;;;;;;;;;;;;;;;;;2213493;59;1180;-78
2023/11/30 09:06:25;;;;;;;;;;;;;;;;;;2202827;66;2069;-77
2023/11/30 09:09:01;;;;;;;;;;;;;;;;;;2212855;66;1538;-79
2023/11/30 09:11:44;;;;;;;;;;;;;;;;;;2213750;66;1287;-79
2023/11/30 09:14:22;;;;;;;;;;;;;;;;;;2212717;59;1308;-78
2023/11/30 09:16:56;;;;;;;;;;;;;;;;;;2211933;59;2320;-78
2023/11/30 09:19:26;;;;;;;;;;;;;;;;;;2199563;59;1773;-78
2023/11/30 09:22:17;;;;;;;;;;;;;;;;;;2212406;59;1991;-78
2023/11/30 09:24:48;;;;;;;;;;;;;;;;;;2212776;66;1017;-78
2023/11/30 09:27:19;;;;;;;;;;;;;;;;;;2213865;59;1546;-78
2023/11/30 09:29:52;;;;;;;;;;;;;;;;;;2196330;59;2443;-78
2023/11/30 09:32:28;;;;;;;;;;;;;;;;;;2214346;59;1278;-78
2023/11/30 09:35:05;;;;;;;;;;;;;;;;;;2197250;59;1526;-79
2023/11/30 09:37:44;;;;;;;;;;;;;;;;;;2204080;59;2164;-79
2023/11/30 09:40:15;;;;;;;;;;;;;;;;;;2212841;59;1957;-78
2023/11/30 09:42:49;;;;;;;;;;;;;;;;;;2211498;67;1613;-78
2023/11/30 09:45:20;;;;;;;;;;;;;;;;;;2214117;59;1165;-78
2023/11/30 09:47:54;;;;;;;;;;;;;;;;;;2215260;59;1175;-78
2023/11/30 09:50:27;;;;;;;;;;;;;;;;;;2213731;66;1169;-78
2023/11/30 09:53:00;;;;;;;;;;;;;;;;;;2213018;59;1391;-79
2023/11/30 09:55:31;;;;;;;;;;;;;;;;;;2214297;60;1159;-80
2023/11/30 09:58:04;;;;;;;;;;;;;;;;;;2213619;58;1335;-79
2023/11/30 10:00:43;;;;;;;;;;;;;;;;;;2214857;66;1980;-78
2023/11/30 10:03:16;;;;;;;;;;;;;;;;;;2214267;66;1303;-79
2023/11/30 10:05:46;;;;;;;;;;;;;;;;;;2213907;66;1106;-79
2023/11/30 10:08:25;;;;;;;;;;;;;;;;;;2199038;66;1242;-79
2023/11/30 10:10:56;;;;;;;;;;;;;;;;;;2213293;66;1451;-79
2023/11/30 10:13:32;;;;;;;;;;;;;;;;;;2215369;66;1104;-79
2023/11/30 10:16:06;;;;;;;;;;;;;;;;;;2214139;59;1819;-79
2023/11/30 10:18:36;;;;;;;;;;;;;;;;;;2215159;66;1182;-78
2023/11/30 10:21:08;;;;;;;;;;;;;;;;;;2214654;66;1908;-79
2023/11/30 10:23:41;;;;;;;;;;;;;;;;;;2214728;66;1021;-79
2023/11/30 10:26:25;;;;;;;;;;;;;;;;;;2213742;59;1386;-78
2023/11/30 10:28:56;;;;;;;;;;;;;;;;;;2214362;59;2317;-80
2023/11/30 10:31:33;;;;;;;;;;;;;;;;;;2215342;59;1561;-79
2023/11/30 10:34:18;;;;;;;;;;;;;;;;;;2215053;66;1550;-79
2023/11/30 10:36:49;;;;;;;;;;;;;;;;;;2203795;59;2424;-79
2023/11/30 10:39:26;;;;;;;;;;;;;;;;;;2216213;66;1182;-79
2023/11/30 10:42:05;;;;;;;;;;;;;;;;;;2216030;59;1916;-79
2023/11/30 10:44:51;;;;;;;;;;;;;;;;;;2215335;59;1666;-79
2023/11/30 10:47:22;;;;;;;;;;;;;;;;;;2201882;59;1518;-79
2023/11/30 10:50:05;;;;;;;;;;;;;;;;;;2214654;59;2340;-79
2023/11/30 10:52:40;;;;;;;;;;;;;;;;;;2215877;59;1271;-79
2023/11/30 10:55:24;;;;;;;;;;;;;;;;;;;;;
2023/11/30 10:58:01;;;;;;;;;;;;;;;;;;2203238;59;2179;-79
2023/11/30 11:00:34;;;;;;;;;;;;;;;;;;2199372;59;1970;-79
2023/11/30 11:03:07;;;;;;;;;;;;;;;;;;2214597;59;2260;-79
2023/11/30 11:05:45;;;;;;;;;;;;;;;;;;2215443;59;1457;-79
2023/11/30 11:08:16;;;;;;;;;;;;;;;;;;2213940;66;1224;-79
2023/11/30 11:10:47;;;;;;;;;;;;;;;;;;2214485;66;1319;-79
2023/11/30 11:13:24;;;;;;;;;;;;;;;;;;2213586;59;1120;-79
2023/11/30 11:16:08;;;;;;;;;;;;;;;;;;2213330;59;1331;-79
2023/11/30 11:18:44;;;;;;;;;;;;;;;;;;2213781;60;1165;-80
2023/11/30 11:21:34;;;;;;;;;;;;;;;;;;2198665;66;1894;-79
2023/11/30 11:24:10;;;;;;;;;;;;;;;;;;2200610;67;1489;-79
2023/11/30 11:26:49;;;;;;;;;;;;;;;;;;2213513;66;1279;-79
2023/11/30 11:29:20;;;;;;;;;;;;;;;;;;2212234;59;2263;-78
2023/11/30 11:31:57;;;;;;;;;;;;;;;;;;2209627;59;1356;-79
2023/11/30 11:34:32;;;;;;;;;;;;;;;;;;2213434;66;1088;-79
2023/11/30 11:37:07;;;;;;;;;;;;;;;;;;2215049;66;1261;-79
2023/11/30 11:39:46;;;;;;;;;;;;;;;;;;2213743;59;1504;-79
2023/11/30 11:42:17;;;;;;;;;;;;;;;;;;2212442;59;1921;-78
2023/11/30 11:44:52;;;;;;;;;;;;;;;;;;2194540;67;1250;-79
2023/11/30 11:47:23;;;;;;;;;;;;;;;;;;2211759;66;1285;-79
2023/11/30 11:49:59;;;;;;;;;;;;;;;;;;2213460;66;1265;-79
2023/11/30 11:52:32;;;;;;;;;;;;;;;;;;2212923;66;1131;-78
2023/11/30 11:55:08;;;;;;;;;;;;;;;;;;2212324;66;1042;-79
2023/11/30 11:57:59;;;;;;;;;;;;;;;;;;2212583;59;1237;-79
2023/11/30 12:00:37;;;;;;;;;;;;;;;;;;2212001;66;1929;-79
2023/11/30 12:03:10;;;;;;;;;;;;;;;;;;2212646;66;1151;-78
2023/11/30 12:05:54;;;;;;;;;;;;;;;;;;2196974;59;1590;-79
2023/11/30 12:08:30;;;;;;;;;;;;;;;;;;2212923;59;7525;-79
2023/11/30 12:11:01;;;;;;;;;;;;;;;;;;2213772;59;1775;-79
2023/11/30 12:13:37;;;;;;;;;;;;;;;;;;2214057;59;1486;-79
2023/11/30 12:16:08;;;;;;;;;;;;;;;;;;2212956;59;1643;-79
2023/11/30 12:18:39;;;;;;;;;;;;;;;;;;2213430;66;1792;-78
2023/11/30 12:21:12;;;;;;;;;;;;;;;;;;2200412;66;1987;-79
2023/11/30 12:23:45;;;;;;;;;;;;;;;;;;2214585;59;2148;-79
2023/11/30 12:26:16;;;;;;;;;;;;;;;;;;2199101;59;2080;-78
2023/11/30 12:28:49;;;;;;;;;;;;;;;;;;2214150;59;2195;-79
2023/11/30 12:31:19;;;;;;;;;;;;;;;;;;2215075;59;1518;-79
2023/11/30 12:33:50;;;;;;;;;;;;;;;;;;2215897;59;1998;-79
2023/11/30 12:36:30;;;;;;;;;;;;;;;;;;2214698;59;2453;-80
2023/11/30 12:39:03;;;;;;;;;;;;;;;;;;2215552;59;1950;-79
2023/11/30 12:41:41;;;;;;;;;;;;;;;;;;2215968;59;1922;-79
2023/11/30 12:44:12;;;;;;;;;;;;;;;;;;2206111;59;1889;-79
2023/11/30 12:46:44;;;;;;;;;;;;;;;;;;2205814;59;1756;-78
2023/11/30 12:49:17;;;;;;;;;;;;;;;;;;2218901;59;1764;-78
2023/11/30 12:51:58;;;;;;;;;;;;;;;;;;2218045;59;1829;-79
2023/11/30 12:54:28;;;;;;;;;;;;;;;;;;2217794;59;1888;-80
2023/11/30 12:57:06;;;;;;;;;;;;;;;;;;2215740;59;1728;-80
2023/11/30 12:59:40;;;;;;;;;;;;;;;;;;2216796;59;1892;-79
2023/11/30 13:02:24;;;;;;;;;;;;;;;;;;2216886;59;2458;-79
2023/11/30 13:04:54;;;;;;;;;;;;;;;;;;2201402;59;2347;-79
2023/11/30 13:07:27;;;;;;;;;;;;;;;;;;2216450;59;1693;-78
2023/11/30 13:09:58;;;;;;;;;;;;;;;;;;2216820;59;1990;-79
2023/11/30 13:12:31;;;;;;;;;;;;;;;;;;2206939;59;1605;-79
2023/11/30 13:15:06;;;;;;;;;;;;;;;;;;2216790;59;1634;-79
2023/11/30 13:17:45;;;;;;;;;;;;;;;;;;2200962;67;1779;-79
2023/11/30 13:20:16;;;;;;;;;;;;;;;;;;2215615;59;1933;-79
2023/11/30 13:22:49;;;;;;;;;;;;;;;;;;2216778;59;1776;-79
2023/11/30 13:25:26;;;;;;;;;;;;;;;;;;2216659;59;2281;-79
2023/11/30 13:28:07;;;;;;;;;;;;;;;;;;2216755;59;2473;-79
2023/11/30 13:30:49;;;;;;;;;;;;;;;;;;2211358;59;2249;-79
2023/11/30 13:33:26;;;;;;;;;;;;;;;;;;2222276;59;1784;-79
2023/11/30 13:35:59;;;;;;;;;;;;;;;;;;2208632;59;2431;-79
2023/11/30 13:38:32;;;;;;;;;;;;;;;;;;2216198;59;1974;-79
2023/11/30 13:41:08;;;;;;;;;;;;;;;;;;2206132;59;2035;-79
2023/11/30 13:43:49;;;;;;;;;;;;;;;;;;;;;
2023/11/30 13:46:20;;;;;;;;;;;;;;;;;;2217229;59;1998;-78
2023/11/30 13:48:57;;;;;;;;;;;;;;;;;;2216765;58;1711;-78
2023/11/30 13:51:39;;;;;;;;;;;;;;;;;;2215500;59;1856;-79
2023/11/30 13:54:09;;;;;;;;;;;;;;;;;;2217082;59;1661;-79
2023/11/30 13:56:40;;;;;;;;;;;;;;;;;;2216377;59;1758;-79
2023/11/30 13:59:11;;;;;;;;;;;;;;;;;;2218304;58;1786;-78
2023/11/30 14:01:41;;;;;;;;;;;;;;;;;;2214560;59;1898;-79
2023/11/30 14:04:17;;;;;;;;;;;;;;;;;;2216726;59;1610;-78
2023/11/30 14:06:56;;;;;;;;;;;;;;;;;;2217641;58;1657;-79
2023/11/30 14:09:27;;;;;;;;;;;;;;;;;;2216345;59;1738;-79
2023/11/30 14:11:57;;;;;;;;;;;;;;;;;;2216490;58;2100;-79
2023/11/30 14:14:34;;;;;;;;;;;;;;;;;;2214059;59;1689;-79
2023/11/30 14:17:10;;;;;;;;;;;;;;;;;;2215142;59;1292;-79
2023/11/30 14:19:41;;;;;;;;;;;;;;;;;;2218075;66;1003;-79
2023/11/30 14:22:11;;;;;;;;;;;;;;;;;;2214410;67;1928;-79
2023/11/30 14:24:47;;;;;;;;;;;;;;;;;;2218036;59;1138;-79
2023/11/30 14:27:17;;;;;;;;;;;;;;;;;;2216097;59;2318;-79
2023/11/30 14:29:49;;;;;;;;;;;;;;;;;;2221065;59;1082;-79
2023/11/30 14:32:24;;;;;;;;;;;;;;;;;;2221121;58;1308;-80
2023/11/30 14:34:56;;;;;;;;;;;;;;;;;;2215032;66;1241;-83
2023/11/30 14:37:44;;;;;;;;;;;;;;;;;;2220007;66;1385;-79
2023/11/30 14:40:20;;;;;;;;;;;;;;;;;;2216333;59;1985;-79
2023/11/30 14:42:53;;;;;;;;;;;;;;;;;;2217977;59;1185;-79
2023/11/30 14:45:26;;;;;;;;;;;;;;;;;;2216264;66;1495;-79
2023/11/30 14:47:58;;;;;;;;;;;;;;;;;;2206762;66;1366;-79
2023/11/30 14:50:29;;;;;;;;;;;;;;;;;;2216611;66;1332;-79
2023/11/30 14:53:00;;;;;;;;;;;;;;;;;;2216659;66;1008;-79
2023/11/30 14:55:30;;;;;;;;;;;;;;;;;;2215574;59;1099;-79
2023/11/30 14:58:09;;;;;;;;;;;;;;;;;;2201829;59;1294;-81
2023/11/30 15:00:40;;;;;;;;;;;;;;;;;;2216109;66;1989;-78
2023/11/30 15:03:16;;;;;;;;;;;;;;;;;;2216619;59;1316;-80
2023/11/30 15:05:50;;;;;;;;;;;;;;;;;;2206516;66;1078;-79
2023/11/30 15:08:23;;;;;;;;;;;;;;;;;;2217098;60;1152;-79
2023/11/30 15:10:54;;;;;;;;;;;;;;;;;;2217321;66;1109;-79
2023/11/30 15:13:24;;;;;;;;;;;;;;;;;;2216911;59;1237;-79
2023/11/30 15:16:06;;;;;;;;;;;;;;;;;;2215227;59;1290;-79
2023/11/30 15:18:36;;;;;;;;;;;;;;;;;;2201398;66;1208;-79
2023/11/30 15:21:07;;;;;;;;;;;;;;;;;;2215065;66;1984;-79
2023/11/30 15:23:38;;;;;;;;;;;;;;;;;;2216433;66;1132;-79
2023/11/30 15:26:21;;;;;;;;;;;;;;;;;;2214501;66;1127;-79
2023/11/30 15:28:55;;;;;;;;;;;;;;;;;;2216114;59;2408;-79
2023/11/30 15:31:28;;;;;;;;;;;;;;;;;;2199640;60;992;-79
2023/11/30 15:34:05;;;;;;;;;;;;;;;;;;2215914;59;1672;-78
2023/11/30 15:36:46;;;;;;;;;;;;;;;;;;2214724;59;1189;-78
2023/11/30 15:39:23;;;;;;;;;;;;;;;;;;2215302;59;1364;-78
2023/11/30 15:41:57;;;;;;;;;;;;;;;;;;2214750;59;1965;-78
2023/11/30 15:44:33;;;;;;;;;;;;;;;;;;2214617;59;1271;-79
2023/11/30 15:47:06;;;;;;;;;;;;;;;;;;2214867;60;1177;-79
2023/11/30 15:49:42;;;;;;;;;;;;;;;;;;2205848;66;1173;-78
2023/11/30 15:52:15;;;;;;;;;;;;;;;;;;2214336;66;1107;-79
2023/11/30 15:54:48;;;;;;;;;;;;;;;;;;2217410;66;1328;-78
2023/11/30 15:57:24;;;;;;;;;;;;;;;;;;2215664;59;1588;-77
2023/11/30 15:59:57;;;;;;;;;;;;;;;;;;2216256;66;1199;-78
2023/11/30 16:02:41;;;;;;;;;;;;;;;;;;2214813;66;1111;-79
2023/11/30 16:05:15;;;;;;;;;;;;;;;;;;2214555;66;1332;-79
2023/11/30 16:07:50;;;;;;;;;;;;;;;;;;2214959;59;1411;-78
2023/11/30 16:10:21;;;;;;;;;;;;;;;;;;2215723;66;1493;-79
2023/11/30 16:12:55;;;;;;;;;;;;;;;;;;2214470;59;1224;-81
2023/11/30 16:15:31;;;;;;;;;;;;;;;;;;2215290;59;1287;-79
2023/11/30 16:18:01;;;;;;;;;;;;;;;;;;2214470;66;1131;-78
2023/11/30 16:20:32;;;;;;;;;;;;;;;;;;2214684;59;1935;-79
2023/11/30 16:23:02;;;;;;;;;;;;;;;;;;2216098;59;995;-79
2023/11/30 16:25:33;;;;;;;;;;;;;;;;;;2214520;59;1222;-79
2023/11/30 16:28:05;;;;;;;;;;;;;;;;;;2215487;59;2399;-79
2023/11/30 16:30:39;;;;;;;;;;;;;;;;;;2213980;59;2247;-79
2023/11/30 16:33:09;;;;;;;;;;;;;;;;;;2215048;59;1515;-78
2023/11/30 16:35:40;;;;;;;;;;;;;;;;;;2198909;66;1131;-79
2023/11/30 16:38:18;;;;;;;;;;;;;;;;;;2211633;67;1779;-79
2023/11/30 16:40:49;;;;;;;;;;;;;;;;;;2217678;59;1920;-79
2023/11/30 16:43:20;;;;;;;;;;;;;;;;;;2215876;59;1392;-80
2023/11/30 16:45:50;;;;;;;;;;;;;;;;;;2215975;66;1207;-79
2023/11/30 16:48:20;;;;;;;;;;;;;;;;;;2215552;59;1265;-79
2023/11/30 16:50:57;;;;;;;;;;;;;;;;;;2215563;66;1044;-79
2023/11/30 16:53:27;;;;;;;;;;;;;;;;;;2215149;66;1105;-78
2023/11/30 16:55:58;;;;;;;;;;;;;;;;;;2216028;59;1238;-79
2023/11/30 16:58:31;;;;;;;;;;;;;;;;;;2213286;59;1260;-79
2023/11/30 17:01:01;;;;;;;;;;;;;;;;;;2198631;66;1993;-76
2023/11/30 17:03:32;;;;;;;;;;;;;;;;;;2214999;59;1576;-77
2023/11/30 17:06:02;;;;;;;;;;;;;;;;;;2215425;66;1413;-78
2023/11/30 17:08:33;;;;;;;;;;;;;;;;;;2198650;66;1168;-77
2023/11/30 17:11:03;;;;;;;;;;;;;;;;;;2199980;59;1287;-81
2023/11/30 17:13:34;;;;;;;;;;;;;;;;;;2215191;66;1292;-78
2023/11/30 17:16:05;;;;;;;;;;;;;;;;;;2214685;59;1332;-78
2023/11/30 17:18:44;;;;;;;;;;;;;;;;;;2213974;66;1293;-77
2023/11/30 17:21:18;;;;;;;;;;;;;;;;;;2214424;66;1975;-79
2023/11/30 17:23:52;;;;;;;;;;;;;;;;;;2215323;66;1455;-81
2023/11/30 17:26:28;;;;;;;;;;;;;;;;;;2213904;66;1619;-79
2023/11/30 17:28:59;;;;;;;;;;;;;;;;;;2215071;59;2404;-78
2023/11/30 17:31:37;;;;;;;;;;;;;;;;;;2215504;59;1375;-77
2023/11/30 17:34:10;;;;;;;;;;;;;;;;;;2197850;67;1233;-77
2023/11/30 17:36:49;;;;;;;;;;;;;;;;;;2215199;66;1008;-78
2023/11/30 17:39:22;;;;;;;;;;;;;;;;;;2205043;59;1344;-78
2023/11/30 17:41:55;;;;;;;;;;;;;;;;;;2200266;59;1936;-81
2023/11/30 17:44:26;;;;;;;;;;;;;;;;;;2198654;67;1245;-81
2023/11/30 17:47:00;;;;;;;;;;;;;;;;;;2215314;59;1243;-79
2023/11/30 17:49:37;;;;;;;;;;;;;;;;;;2214201;59;1291;-79
2023/11/30 17:52:08;;;;;;;;;;;;;;;;;;2216340;66;1039;-79
2023/11/30 17:54:41;;;;;;;;;;;;;;;;;;2215064;66;1040;-79
2023/11/30 17:57:26;;;;;;;;;;;;;;;;;;2215424;66;1286;-79
2023/11/30 18:00:08;;;;;;;;;;;;;;;;;;2215458;66;1061;-77